Airfield :
LOGIN :

Register | Disclaimer

   EN    FR    IT 

 










Legend :    VFR   Marginal VFR   IFR   Intensive IFR   Very Intensive IFR
Visi :
Ceiling :
>= 8 km
>= 3000ft
5 to 8 km
1000 to 3000 ft
1500m to 5 km
500 to 1000 ft
800 to 1500m
200 to 500 ft
< 800m
< 200 ft
Symbols :   Thunderstorms  Fog  Heavy snow  Heavy precipitations  Wind > 20 kt
SIGMETs :     Misc.  Thunderstorms  Icing  Turbulence  Mountain Waves  Volcanic Ashes






- Airport Elevation : 39 ft
- IATA code : ANR


EBAW - Anvers / Antwerpen Deurne

CURRENT METAR :
  • 271720Z 33011KT 9999 -SHRA SCT011TCU BKN016 04/02 Q1002 TEMPO 30015G25KT 4500 SHRA BKN013CB

EXPIRED METARs :
  • 271650Z 32013KT 9999 SCT011 04/02 Q1001 TEMPO 30015G25KT 4500 SHRA SCT012TCU
  • 271620Z 32009KT 9999 SCT005 BKN007 03/01 Q1000 BECMG FEW004 BKN008
  • 271550Z 31009KT 9000 BKN004 02/01 Q0999 BECMG FEW004 BKN008
  • 271520Z 32008KT 1800 -SN SCT003 BKN004 01/M00 Q0998 BECMG 8000 NSW FEW004 BKN008
  • 271450Z 33007KT 1500 SN BKN004 01/M00 Q0997 BECMG FM1600 8000 NSW

TAF TAF EBAW
Valid from the 27 at 18:00 until the 28 at 03:00 UTC


271710Z 2718/2803 30010KT 9999 SCT008 BKN014
PROB30
TEMPO 2718/2720 30015G28KT 4000 SHRAGS BKN012CB
BECMG 2720/2722 26008KT FEW012 SCT030



MET'MAP, your aeronautical weather chart ! - Copyright ORBIFLY December 2007 - Disclaimer

ORBIFLY MET'MAP TEAM :

Programming & Development : Alexandra Zaïnal
Concept & original design : Baudouin d'Aumeries
Assistance for programming : Marc-Olivier Méhu
Technical & hardware support : Manuel Goepfert

Contact : metmap@orbifly.com




SOURCES & CREDITS :

   NOAA